createdAt,value
2019-03-27T00:00:21.625Z,6.32
2019-03-27T00:01:21.553Z,6.34
2019-03-27T00:02:21.568Z,6.34
2019-03-27T00:03:21.520Z,6.33
2019-03-27T00:04:21.544Z,6.32
2019-03-27T00:05:21.578Z,6.31
2019-03-27T00:06:21.515Z,6.32
2019-03-27T00:07:21.541Z,6.3
2019-03-27T00:08:21.623Z,6.3
2019-03-27T00:09:21.559Z,6.3
2019-03-27T00:10:21.606Z,6.3
2019-03-27T00:11:21.511Z,6.31
2019-03-27T00:12:21.566Z,6.32
2019-03-27T00:13:21.522Z,6.31
2019-03-27T00:14:21.509Z,6.26
2019-03-27T00:15:21.536Z,6.2
2019-03-27T00:16:21.604Z,6.15
2019-03-27T00:17:21.515Z,6.11
2019-03-27T00:18:21.505Z,6.1
2019-03-27T00:19:21.509Z,6.06
2019-03-27T00:20:21.668Z,6.07
2019-03-27T00:21:21.592Z,6.08
2019-03-27T00:22:21.525Z,6.09
2019-03-27T00:23:24.496Z,6.1
2019-03-27T00:24:21.556Z,6.11
2019-03-27T00:25:21.481Z,6.12
2019-03-27T00:26:21.521Z,6.08
2019-03-27T00:27:21.514Z,6.05
2019-03-27T00:28:21.546Z,6.05
2019-03-27T00:29:21.571Z,6.01
2019-03-27T00:30:21.485Z,6.02
2019-03-27T00:31:22.149Z,6.05
2019-03-27T00:32:21.527Z,6.06
2019-03-27T00:33:21.486Z,6.1
2019-03-27T00:34:21.543Z,6.1
2019-03-27T00:35:21.552Z,6.12
2019-03-27T00:36:21.574Z,6.12
2019-03-27T00:37:21.496Z,6.14
2019-03-27T00:38:21.485Z,6.17
2019-03-27T00:39:21.538Z,6.17
2019-03-27T00:40:21.517Z,6.19
2019-03-27T00:41:21.675Z,6.2
2019-03-27T00:42:21.565Z,6.18
2019-03-27T00:43:22.636Z,6.2
2019-03-27T00:44:21.469Z,6.21
2019-03-27T00:45:27.504Z,6.19
2019-03-27T00:46:21.464Z,6.22
2019-03-27T00:47:21.476Z,6.22
2019-03-27T00:48:21.447Z,6.22
2019-03-27T00:49:21.492Z,6.23
2019-03-27T00:50:21.547Z,6.24
2019-03-27T00:51:21.530Z,6.24
2019-03-27T00:52:21.639Z,6.26
2019-03-27T00:53:22.846Z,6.26
2019-03-27T00:54:21.497Z,6.27
2019-03-27T00:55:21.475Z,6.29
2019-03-27T00:56:21.431Z,6.32
2019-03-27T00:57:21.489Z,6.31
2019-03-27T00:58:21.490Z,6.33
2019-03-27T00:59:21.493Z,6.36
2019-03-27T01:00:21.865Z,6.37
2019-03-27T01:01:21.494Z,6.37
2019-03-27T01:02:21.440Z,6.4
2019-03-27T01:03:21.486Z,6.41
2019-03-27T01:04:21.522Z,6.42
2019-03-27T01:05:21.457Z,6.41
2019-03-27T01:06:21.457Z,6.41
2019-03-27T01:07:22.565Z,6.4
2019-03-27T01:08:21.513Z,6.41
2019-03-27T01:09:21.439Z,6.41
2019-03-27T01:10:21.575Z,6.41
2019-03-27T01:11:21.428Z,6.41
2019-03-27T01:12:21.468Z,6.41
2019-03-27T01:13:21.421Z,6.39
2019-03-27T01:14:21.879Z,6.37
2019-03-27T01:15:21.429Z,6.36
2019-03-27T01:16:21.417Z,6.37
2019-03-27T01:17:21.427Z,6.37
2019-03-27T01:18:21.453Z,6.37
2019-03-27T01:19:21.496Z,6.39
2019-03-27T01:20:21.442Z,6.37
2019-03-27T01:21:21.444Z,6.39
2019-03-27T01:22:21.514Z,6.37
2019-03-27T01:23:21.573Z,6.39
2019-03-27T01:24:21.415Z,6.36
2019-03-27T01:25:21.430Z,6.35
2019-03-27T01:26:21.485Z,6.39
2019-03-27T01:27:21.430Z,6.36
2019-03-27T01:28:21.406Z,6.37
2019-03-27T01:29:21.393Z,6.35
2019-03-27T01:30:21.533Z,6.34
2019-03-27T01:31:21.399Z,6.3
2019-03-27T01:32:21.456Z,6.24
2019-03-27T01:33:21.451Z,6.21
2019-03-27T01:34:21.404Z,6.21
2019-03-27T01:35:21.513Z,6.21
2019-03-27T01:36:21.418Z,6.19
2019-03-27T01:37:21.395Z,6.19
2019-03-27T01:38:21.403Z,6.17
2019-03-27T01:39:21.374Z,6.17
2019-03-27T01:40:21.502Z,6.16
2019-03-27T01:41:21.415Z,6.13
2019-03-27T01:42:21.517Z,6.11
2019-03-27T01:43:21.466Z,6.11
2019-03-27T01:44:21.444Z,6.11
2019-03-27T01:45:21.411Z,6.11
2019-03-27T01:46:21.395Z,6.13
2019-03-27T01:47:21.407Z,6.13
2019-03-27T01:48:21.453Z,6.14
2019-03-27T01:49:21.379Z,6.09
2019-03-27T01:50:21.422Z,6.06
2019-03-27T01:51:21.402Z,5.99
2019-03-27T01:52:21.511Z,5.9
2019-03-27T01:53:21.421Z,5.82
2019-03-27T01:54:21.355Z,5.81
2019-03-27T01:55:21.442Z,5.78
2019-03-27T01:56:21.386Z,5.81
2019-03-27T01:57:21.886Z,5.73
2019-03-27T01:58:21.756Z,5.69
2019-03-27T01:59:21.346Z,5.66
2019-03-27T02:00:21.404Z,5.54
2019-03-27T02:01:21.402Z,5.54
2019-03-27T02:02:21.532Z,5.53
2019-03-27T02:03:21.418Z,5.55
2019-03-27T02:04:21.387Z,5.58
2019-03-27T02:05:21.349Z,5.6
2019-03-27T02:06:21.383Z,5.6
2019-03-27T02:07:21.368Z,5.61
2019-03-27T02:08:21.398Z,5.61
2019-03-27T02:09:21.359Z,5.56
2019-03-27T02:10:22.543Z,5.52
2019-03-27T02:11:21.393Z,5.51
2019-03-27T02:12:21.357Z,5.53
2019-03-27T02:13:21.434Z,5.57
2019-03-27T02:14:21.362Z,5.55
2019-03-27T02:15:21.442Z,5.57
2019-03-27T02:16:21.390Z,5.59
2019-03-27T02:17:21.338Z,5.6
2019-03-27T02:18:21.393Z,5.63
2019-03-27T02:19:21.473Z,5.65
2019-03-27T02:20:21.347Z,5.63
2019-03-27T02:21:21.357Z,5.65
2019-03-27T02:22:21.319Z,5.61
2019-03-27T02:23:21.346Z,5.65
2019-03-27T02:24:21.327Z,5.65
2019-03-27T02:25:21.327Z,5.69
2019-03-27T02:26:21.476Z,5.66
2019-03-27T02:27:21.396Z,5.66
2019-03-27T02:28:21.341Z,5.69
2019-03-27T02:29:21.403Z,5.7
2019-03-27T02:30:21.377Z,5.72
2019-03-27T02:31:21.365Z,5.7
2019-03-27T02:32:21.703Z,5.7
2019-03-27T02:33:21.498Z,5.7
2019-03-27T02:34:21.391Z,5.72
2019-03-27T02:35:21.338Z,5.7
2019-03-27T02:36:21.367Z,5.72
2019-03-27T02:37:21.471Z,5.71
2019-03-27T02:38:21.448Z,5.62
2019-03-27T02:39:21.349Z,5.55
2019-03-27T02:40:22.111Z,5.45
2019-03-27T02:41:21.471Z,5.42
2019-03-27T02:42:21.312Z,5.49
2019-03-27T02:43:21.374Z,5.45
2019-03-27T02:44:21.542Z,5.32
2019-03-27T02:45:21.337Z,5.24
2019-03-27T02:46:26.034Z,5.24
2019-03-27T02:47:21.282Z,5.26
2019-03-27T02:48:21.324Z,5.28
2019-03-27T02:49:21.424Z,5.33
2019-03-27T02:50:21.359Z,5.35
2019-03-27T02:51:21.443Z,5.36
2019-03-27T02:52:21.379Z,5.36
2019-03-27T02:53:21.372Z,5.39
2019-03-27T02:54:21.356Z,5.38
2019-03-27T02:55:21.307Z,5.41
2019-03-27T02:56:21.336Z,5.42
2019-03-27T02:57:21.285Z,5.44
2019-03-27T02:58:21.295Z,5.45
2019-03-27T02:59:21.290Z,5.46
2019-03-27T03:00:21.325Z,5.48
2019-03-27T03:01:21.306Z,5.49
2019-03-27T03:02:21.272Z,5.51
2019-03-27T03:03:21.383Z,5.53
2019-03-27T03:04:21.295Z,5.54
2019-03-27T03:05:21.279Z,5.54
2019-03-27T03:06:21.324Z,5.52
2019-03-27T03:07:21.296Z,5.52
2019-03-27T03:08:21.479Z,5.54
2019-03-27T03:09:21.261Z,5.58
2019-03-27T03:10:21.325Z,5.55
2019-03-27T03:11:21.390Z,5.59
2019-03-27T03:12:21.460Z,5.59
2019-03-27T03:13:21.313Z,5.61
2019-03-27T03:14:21.299Z,5.64
2019-03-27T03:15:21.277Z,5.64
2019-03-27T03:16:21.313Z,5.64
2019-03-27T03:17:21.297Z,5.64
2019-03-27T03:18:21.420Z,5.61
2019-03-27T03:19:21.276Z,5.62
2019-03-27T03:20:21.895Z,5.6
2019-03-27T03:21:21.432Z,5.63
2019-03-27T03:22:21.298Z,5.64
2019-03-27T03:23:21.903Z,5.63
2019-03-27T03:24:21.309Z,5.63
2019-03-27T03:25:21.302Z,5.64
2019-03-27T03:26:21.298Z,5.65
2019-03-27T03:27:21.278Z,5.66
2019-03-27T03:28:21.551Z,5.67
2019-03-27T03:29:21.281Z,5.69
2019-03-27T03:30:21.303Z,5.71
2019-03-27T03:31:21.301Z,5.71
2019-03-27T03:32:21.418Z,5.72
2019-03-27T03:33:21.344Z,5.73
2019-03-27T03:34:21.416Z,5.73
2019-03-27T03:35:21.295Z,5.74
2019-03-27T03:36:21.240Z,5.74
2019-03-27T03:37:21.404Z,5.77
2019-03-27T03:38:21.269Z,5.77
2019-03-27T03:39:21.338Z,5.76
2019-03-27T03:40:21.237Z,5.74
2019-03-27T03:41:21.234Z,5.76
2019-03-27T03:42:21.219Z,5.75
2019-03-27T03:43:21.271Z,5.75
2019-03-27T03:44:21.242Z,5.74
2019-03-27T03:45:21.455Z,5.76
2019-03-27T03:46:21.986Z,5.73
2019-03-27T03:47:21.258Z,5.72
2019-03-27T03:48:21.276Z,5.7
2019-03-27T03:49:21.269Z,5.66
2019-03-27T03:50:21.255Z,5.68
2019-03-27T03:51:21.220Z,5.67
2019-03-27T03:52:21.236Z,5.68
2019-03-27T03:53:21.201Z,5.68
2019-03-27T03:54:21.465Z,5.69
2019-03-27T03:55:23.542Z,5.71
2019-03-27T03:56:21.254Z,5.69
2019-03-27T03:57:21.278Z,5.68
2019-03-27T03:58:21.209Z,5.7
2019-03-27T03:59:21.276Z,5.73
2019-03-27T04:00:21.400Z,5.73
2019-03-27T04:01:21.371Z,5.74
2019-03-27T04:02:21.259Z,5.76
2019-03-27T04:03:21.259Z,5.74
2019-03-27T04:04:21.214Z,5.76
2019-03-27T04:05:21.177Z,5.77
2019-03-27T04:06:21.223Z,5.74
2019-03-27T04:07:21.256Z,5.78
2019-03-27T04:08:21.241Z,5.76
2019-03-27T04:09:21.284Z,5.77
2019-03-27T04:10:21.201Z,5.75
2019-03-27T04:11:21.217Z,5.7
2019-03-27T04:12:21.230Z,5.73
2019-03-27T04:13:21.183Z,5.66
2019-03-27T04:14:21.188Z,5.65
2019-03-27T04:15:21.248Z,5.68
2019-03-27T04:16:21.220Z,5.66
2019-03-27T04:17:21.226Z,5.67
2019-03-27T04:18:21.182Z,5.67
2019-03-27T04:19:21.310Z,5.66
2019-03-27T04:20:21.204Z,5.66
2019-03-27T04:21:21.210Z,5.66
2019-03-27T04:22:21.192Z,5.65
2019-03-27T04:23:21.187Z,5.66
2019-03-27T04:24:21.179Z,5.65
2019-03-27T04:25:21.208Z,5.63
2019-03-27T04:26:21.173Z,5.64
2019-03-27T04:27:21.179Z,5.63
2019-03-27T04:28:21.355Z,5.61
2019-03-27T04:29:21.171Z,5.58
2019-03-27T04:30:21.171Z,5.58
2019-03-27T04:31:21.259Z,5.56
2019-03-27T04:32:21.260Z,5.58
2019-03-27T04:33:21.166Z,5.59
2019-03-27T04:34:21.164Z,5.59
2019-03-27T04:35:21.275Z,5.57
2019-03-27T04:36:21.259Z,5.56
2019-03-27T04:37:21.279Z,5.59
2019-03-27T04:38:21.132Z,5.59
2019-03-27T04:39:21.213Z,5.6
2019-03-27T04:40:21.133Z,5.6
2019-03-27T04:41:21.175Z,5.61
2019-03-27T04:42:21.149Z,5.6
2019-03-27T04:43:21.148Z,5.6
2019-03-27T04:44:21.138Z,5.61
2019-03-27T04:45:21.374Z,5.61
2019-03-27T04:46:21.171Z,5.59
2019-03-27T04:47:32.981Z,5.61
2019-03-27T04:48:21.294Z,5.61
2019-03-27T04:49:21.174Z,5.6
2019-03-27T04:50:21.416Z,5.61
2019-03-27T04:51:21.148Z,5.61
2019-03-27T04:52:21.186Z,5.61
2019-03-27T04:53:21.130Z,5.6
2019-03-27T04:54:21.149Z,5.61
2019-03-27T04:55:21.139Z,5.58
2019-03-27T04:56:21.180Z,5.59
2019-03-27T04:57:21.181Z,5.6
2019-03-27T04:58:21.993Z,5.6
2019-03-27T04:59:21.088Z,5.6
2019-03-27T05:00:21.099Z,5.61
2019-03-27T05:01:21.170Z,5.61
2019-03-27T05:02:21.126Z,5.61
2019-03-27T05:03:21.095Z,5.64
2019-03-27T05:04:21.168Z,5.61
2019-03-27T05:05:21.105Z,5.62
2019-03-27T05:06:21.181Z,5.61
2019-03-27T05:07:21.135Z,5.61
2019-03-27T05:08:22.610Z,5.6
2019-03-27T05:09:21.113Z,5.61
2019-03-27T05:10:21.081Z,5.61
2019-03-27T05:11:21.128Z,5.61
2019-03-27T05:12:21.080Z,5.61
2019-03-27T05:13:21.117Z,5.61
2019-03-27T05:14:21.149Z,5.64
2019-03-27T05:15:21.102Z,5.63
2019-03-27T05:16:21.224Z,5.66
2019-03-27T05:17:21.214Z,5.65
2019-03-27T05:18:21.325Z,5.65
2019-03-27T05:19:22.001Z,5.65
2019-03-27T05:20:21.085Z,5.64
2019-03-27T05:21:21.073Z,5.64
2019-03-27T05:22:21.127Z,5.64
2019-03-27T05:23:21.366Z,5.61
2019-03-27T05:24:21.112Z,5.61
2019-03-27T05:25:21.108Z,5.6
2019-03-27T05:26:21.159Z,5.61
2019-03-27T05:27:21.108Z,5.59
2019-03-27T05:28:21.116Z,5.6
2019-03-27T05:29:21.069Z,5.6
2019-03-27T05:30:21.073Z,5.59
2019-03-27T05:31:21.059Z,5.59
2019-03-27T05:32:23.305Z,5.59
2019-03-27T05:33:21.083Z,5.6
2019-03-27T05:34:22.812Z,5.61
2019-03-27T05:35:21.082Z,5.61
2019-03-27T05:36:21.064Z,5.63
2019-03-27T05:37:21.022Z,5.64
2019-03-27T05:38:21.048Z,5.66
2019-03-27T05:39:21.049Z,5.64
2019-03-27T05:40:21.056Z,5.67
2019-03-27T05:41:21.097Z,5.67
2019-03-27T05:42:21.122Z,5.69
2019-03-27T05:43:21.950Z,5.68
2019-03-27T05:44:21.038Z,5.69
2019-03-27T05:45:21.086Z,5.69
2019-03-27T05:46:21.031Z,5.69
2019-03-27T05:47:21.038Z,5.52
2019-03-27T05:48:21.059Z,5.52
2019-03-27T05:49:21.075Z,5.56
2019-03-27T05:50:21.068Z,5.56
2019-03-27T05:51:21.005Z,5.58
2019-03-27T05:52:21.029Z,5.59
2019-03-27T05:53:21.122Z,5.61
2019-03-27T05:54:21.086Z,5.64
2019-03-27T05:55:21.243Z,5.65
2019-03-27T05:56:21.886Z,5.66
2019-03-27T05:57:21.058Z,5.67
2019-03-27T05:58:21.327Z,5.68
2019-03-27T05:59:21.042Z,5.69
2019-03-27T06:00:21.052Z,5.71
2019-03-27T06:01:20.999Z,5.71
2019-03-27T06:02:21.202Z,5.73
2019-03-27T06:03:21.081Z,5.73
2019-03-27T06:04:21.028Z,5.81
2019-03-27T06:05:21.020Z,5.87
2019-03-27T06:06:21.001Z,5.88
2019-03-27T06:07:21.036Z,5.9
2019-03-27T06:08:20.998Z,5.87
2019-03-27T06:09:22.058Z,5.9
2019-03-27T06:10:21.033Z,5.89
2019-03-27T06:11:21.001Z,5.9
2019-03-27T06:12:21.019Z,5.9
2019-03-27T06:13:21.939Z,5.91
2019-03-27T06:14:21.005Z,5.92
2019-03-27T06:15:22.143Z,5.93
2019-03-27T06:16:21.260Z,5.92
2019-03-27T06:17:21.217Z,5.95
2019-03-27T06:18:20.988Z,5.93
2019-03-27T06:19:21.017Z,5.97
2019-03-27T06:20:21.881Z,5.97
2019-03-27T06:21:21.012Z,5.97
2019-03-27T06:22:21.011Z,5.98
2019-03-27T06:23:20.967Z,5.98
2019-03-27T06:24:20.996Z,6.01
2019-03-27T06:25:20.964Z,6.01
2019-03-27T06:26:21.029Z,6.01
2019-03-27T06:27:21.001Z,5.97
2019-03-27T06:28:21.085Z,5.94
2019-03-27T06:29:21.044Z,5.9
2019-03-27T06:30:20.990Z,5.86
2019-03-27T06:31:21.002Z,5.8
2019-03-27T06:32:21.076Z,5.85
2019-03-27T06:33:20.997Z,5.88
2019-03-27T06:34:20.964Z,5.9
2019-03-27T06:35:21.005Z,5.88
2019-03-27T06:36:21.003Z,5.87
2019-03-27T06:37:21.061Z,5.9
2019-03-27T06:38:21.454Z,5.91
2019-03-27T06:39:21.239Z,5.93
2019-03-27T06:40:21.000Z,5.94
2019-03-27T06:41:21.094Z,5.98
2019-03-27T06:42:21.015Z,5.99
2019-03-27T06:43:21.026Z,6
2019-03-27T06:44:21.067Z,6.04
2019-03-27T06:45:21.124Z,6.06
2019-03-27T06:46:21.916Z,6.09
2019-03-27T06:47:21.054Z,6.11
2019-03-27T06:48:27.068Z,6.12
2019-03-27T06:49:20.938Z,6.14
2019-03-27T06:50:21.005Z,6.15
2019-03-27T06:51:21.007Z,6.17
2019-03-27T06:52:20.987Z,6.18
2019-03-27T06:53:21.036Z,6.21
2019-03-27T06:54:20.978Z,6.24
2019-03-27T06:55:20.990Z,6.28
2019-03-27T06:56:21.205Z,6.27
2019-03-27T06:57:20.947Z,6.3
2019-03-27T06:58:21.079Z,6.3
2019-03-27T06:59:20.980Z,6.32
2019-03-27T07:00:21.917Z,6.33
2019-03-27T07:01:20.999Z,6.35
2019-03-27T07:02:21.006Z,6.34
2019-03-27T07:03:20.942Z,6.35
2019-03-27T07:04:21.042Z,6.35
2019-03-27T07:05:21.110Z,6.36
2019-03-27T07:06:21.182Z,6.4
2019-03-27T07:07:21.029Z,6.41
2019-03-27T07:08:20.917Z,6.38
2019-03-27T07:09:21.010Z,6.42
2019-03-27T07:10:20.927Z,6.44
2019-03-27T07:11:20.982Z,6.47
2019-03-27T07:12:21.969Z,6.48
2019-03-27T07:13:20.940Z,6.47
2019-03-27T07:14:21.107Z,6.47
2019-03-27T07:15:20.976Z,6.49
2019-03-27T07:16:20.974Z,6.48
2019-03-27T07:17:21.180Z,6.48
2019-03-27T07:18:21.070Z,6.5
2019-03-27T07:19:20.991Z,6.49
2019-03-27T07:20:22.076Z,6.51
2019-03-27T07:21:21.346Z,6.51
2019-03-27T07:22:20.951Z,6.5
2019-03-27T07:23:20.944Z,6.54
2019-03-27T07:24:21.893Z,6.54
2019-03-27T07:25:21.019Z,6.57
2019-03-27T07:26:21.055Z,6.59
2019-03-27T07:27:20.939Z,6.55
2019-03-27T07:28:20.895Z,6.58
2019-03-27T07:29:20.897Z,6.63
2019-03-27T07:30:21.824Z,6.62
2019-03-27T07:31:20.849Z,6.65
2019-03-27T07:32:20.956Z,6.66
2019-03-27T07:33:20.873Z,6.67
2019-03-27T07:34:20.851Z,6.67
2019-03-27T07:35:20.861Z,6.67
2019-03-27T07:36:20.914Z,6.7
2019-03-27T07:37:20.865Z,6.73
2019-03-27T07:38:20.923Z,6.74
2019-03-27T07:39:20.851Z,6.8
2019-03-27T07:40:20.965Z,6.8
2019-03-27T07:41:20.923Z,6.82
2019-03-27T07:42:20.907Z,6.83
2019-03-27T07:43:20.953Z,6.81
2019-03-27T07:44:20.869Z,6.85
2019-03-27T07:45:20.888Z,6.85
2019-03-27T07:46:20.883Z,6.87
2019-03-27T07:47:20.876Z,6.86
2019-03-27T07:48:20.979Z,6.88
2019-03-27T07:49:20.936Z,6.85
2019-03-27T07:50:20.878Z,6.84
2019-03-27T07:51:20.886Z,6.87
2019-03-27T07:52:20.894Z,6.92
2019-03-27T07:53:22.941Z,6.92
2019-03-27T07:54:20.907Z,6.91
2019-03-27T07:55:20.917Z,6.93
2019-03-27T07:56:20.855Z,7
2019-03-27T07:57:20.834Z,6.98
2019-03-27T07:58:20.836Z,6.95
2019-03-27T07:59:20.894Z,6.96
2019-03-27T08:00:20.926Z,6.94
2019-03-27T08:01:20.837Z,6.98
2019-03-27T08:02:20.938Z,7.08
2019-03-27T08:03:20.827Z,7.09
2019-03-27T08:04:21.034Z,7.12
2019-03-27T08:05:20.825Z,7.15
2019-03-27T08:06:20.889Z,7.13
2019-03-27T08:07:27.590Z,7.17
2019-03-27T08:08:21.021Z,7.2
2019-03-27T08:09:23.420Z,7.23
2019-03-27T08:10:20.830Z,7.22
2019-03-27T08:11:21.685Z,7.18
2019-03-27T08:12:20.863Z,7.25
2019-03-27T08:13:20.883Z,7.29
2019-03-27T08:14:20.832Z,7.3
2019-03-27T08:15:20.896Z,7.34
2019-03-27T08:16:20.925Z,7.36
2019-03-27T08:17:20.926Z,7.39
2019-03-27T08:18:20.883Z,7.43
2019-03-27T08:19:20.859Z,7.5
2019-03-27T08:20:20.861Z,7.52
2019-03-27T08:21:20.832Z,7.58
2019-03-27T08:22:20.867Z,7.61
2019-03-27T08:23:20.875Z,7.62
2019-03-27T08:24:20.858Z,7.64
2019-03-27T08:25:20.841Z,7.64
2019-03-27T08:26:21.078Z,7.67
2019-03-27T08:27:20.820Z,7.7
2019-03-27T08:28:20.842Z,7.69
2019-03-27T08:29:20.804Z,7.75
2019-03-27T08:30:20.864Z,7.76
2019-03-27T08:31:20.871Z,7.76
2019-03-27T08:32:20.824Z,7.8
2019-03-27T08:33:20.814Z,7.82
2019-03-27T08:34:20.967Z,7.88
2019-03-27T08:35:20.852Z,7.95
2019-03-27T08:36:20.807Z,8.06
2019-03-27T08:37:20.841Z,8.1
2019-03-27T08:38:20.850Z,8.05
2019-03-27T08:39:20.871Z,8.1
2019-03-27T08:40:20.804Z,8.13
2019-03-27T08:41:20.782Z,8.2
2019-03-27T08:42:20.807Z,8.27
2019-03-27T08:43:25.974Z,8.17
2019-03-27T08:44:20.850Z,8.25
2019-03-27T08:45:20.915Z,8.26
2019-03-27T08:46:20.815Z,8.23
2019-03-27T08:47:20.884Z,8.26
2019-03-27T08:48:20.842Z,8.3
2019-03-27T08:49:23.030Z,8.36
2019-03-27T08:50:20.885Z,8.34
2019-03-27T08:51:20.969Z,8.33
2019-03-27T08:52:20.798Z,8.33
2019-03-27T08:53:20.813Z,8.44
2019-03-27T08:54:20.815Z,8.55
2019-03-27T08:55:20.854Z,8.53
2019-03-27T08:56:20.774Z,8.57
2019-03-27T08:57:20.800Z,8.62
2019-03-27T08:58:20.770Z,8.61
2019-03-27T08:59:20.770Z,8.66
2019-03-27T09:00:21.779Z,8.63
2019-03-27T09:01:20.814Z,8.61
2019-03-27T09:02:20.817Z,8.68
2019-03-27T09:03:21.008Z,8.75
2019-03-27T09:04:20.764Z,8.74
2019-03-27T09:05:20.719Z,8.75
2019-03-27T09:06:34.537Z,8.7
2019-03-27T09:07:20.775Z,8.67
2019-03-27T09:08:20.755Z,8.69
2019-03-27T09:09:20.749Z,8.75
2019-03-27T09:10:20.725Z,8.75
2019-03-27T09:11:20.874Z,8.75
2019-03-27T09:12:20.758Z,8.81
2019-03-27T09:13:20.820Z,8.91
2019-03-27T09:14:20.789Z,8.94
2019-03-27T09:15:20.779Z,9
2019-03-27T09:16:20.757Z,9.1
2019-03-27T09:17:20.807Z,9.16
2019-03-27T09:18:20.827Z,9.16
2019-03-27T09:19:36.624Z,9.12
2019-03-27T09:20:20.711Z,9.09
2019-03-27T09:21:20.779Z,9.05
2019-03-27T09:22:21.719Z,9.06
2019-03-27T09:23:20.799Z,9.09
2019-03-27T09:24:20.769Z,9.09
2019-03-27T09:25:20.750Z,9.1
2019-03-27T09:26:20.903Z,9.13
2019-03-27T09:27:20.858Z,9.13
2019-03-27T09:28:20.730Z,9.15
2019-03-27T09:29:20.714Z,9.18
2019-03-27T09:30:21.067Z,9.24
2019-03-27T09:31:20.752Z,9.31
2019-03-27T09:32:20.775Z,9.34
2019-03-27T09:33:20.736Z,9.39
2019-03-27T09:34:20.720Z,9.42
2019-03-27T09:35:20.702Z,9.39
2019-03-27T09:36:20.736Z,9.38
2019-03-27T09:37:20.792Z,9.44
2019-03-27T09:38:20.705Z,9.5
2019-03-27T09:39:20.742Z,9.55
2019-03-27T09:40:20.783Z,9.57
2019-03-27T09:41:21.927Z,9.58
2019-03-27T09:42:20.723Z,9.54
2019-03-27T09:43:20.697Z,9.51
2019-03-27T09:44:20.889Z,9.59
2019-03-27T09:45:20.851Z,9.65
2019-03-27T09:46:20.727Z,9.72
2019-03-27T09:47:20.714Z,9.75
2019-03-27T09:48:20.723Z,9.8
2019-03-27T09:49:20.698Z,9.83
2019-03-27T09:50:20.736Z,9.89
2019-03-27T09:51:20.746Z,9.91
2019-03-27T09:52:20.909Z,9.94
2019-03-27T09:53:20.687Z,9.94
2019-03-27T09:54:20.768Z,9.95
2019-03-27T09:55:20.764Z,9.92
2019-03-27T09:56:20.693Z,9.88
2019-03-27T09:57:20.682Z,9.83
2019-03-27T09:58:20.739Z,9.85
2019-03-27T09:59:20.770Z,9.89
2019-03-27T10:00:20.679Z,9.88
2019-03-27T10:01:20.753Z,9.9
2019-03-27T10:02:20.831Z,9.9
2019-03-27T10:03:20.691Z,9.91
2019-03-27T10:04:20.689Z,9.97
2019-03-27T10:05:20.658Z,10.04
2019-03-27T10:06:20.816Z,10.1
2019-03-27T10:07:20.671Z,10.11
2019-03-27T10:08:20.735Z,10.13
2019-03-27T10:09:20.663Z,10.15
2019-03-27T10:10:20.648Z,10.16
2019-03-27T10:11:24.208Z,10.23
2019-03-27T10:12:20.727Z,10.27
2019-03-27T10:13:20.741Z,10.36
2019-03-27T10:14:22.529Z,10.39
2019-03-27T10:15:20.661Z,10.42
2019-03-27T10:16:20.733Z,10.45
2019-03-27T10:17:20.681Z,10.48
2019-03-27T10:18:20.695Z,10.5
2019-03-27T10:19:20.673Z,10.51
2019-03-27T10:20:20.707Z,10.51
2019-03-27T10:21:20.636Z,10.51
2019-03-27T10:22:20.647Z,10.52
2019-03-27T10:23:20.678Z,10.53
2019-03-27T10:24:20.831Z,10.52
2019-03-27T10:25:20.676Z,10.49
2019-03-27T10:26:20.685Z,10.45
2019-03-27T10:27:20.645Z,10.42
2019-03-27T10:28:20.668Z,10.43
2019-03-27T10:29:20.709Z,10.43
2019-03-27T10:30:20.692Z,10.32
2019-03-27T10:31:20.619Z,10.24
2019-03-27T10:32:20.664Z,10.22
2019-03-27T10:33:20.710Z,10.25
2019-03-27T10:34:20.612Z,10.24
2019-03-27T10:35:20.755Z,10.26
2019-03-27T10:36:20.712Z,10.29
2019-03-27T10:37:20.611Z,10.31
2019-03-27T10:38:20.640Z,10.28
2019-03-27T10:39:20.664Z,10.3
2019-03-27T10:40:20.667Z,10.29
2019-03-27T10:41:20.592Z,10.25
2019-03-27T10:42:20.638Z,10.25
2019-03-27T10:43:20.711Z,10.23
2019-03-27T10:44:20.732Z,10.22
2019-03-27T10:45:20.613Z,10.21
2019-03-27T10:46:20.596Z,10.16
2019-03-27T10:47:20.657Z,10.16
2019-03-27T10:48:20.660Z,10.17
2019-03-27T10:49:21.100Z,10.16
2019-03-27T10:50:20.697Z,10.16
2019-03-27T10:51:20.714Z,10.11
2019-03-27T10:52:20.610Z,10.09
2019-03-27T10:53:20.586Z,10.09
2019-03-27T10:54:20.694Z,10.08
2019-03-27T10:55:20.619Z,10.11
2019-03-27T10:56:21.503Z,10.12
2019-03-27T10:57:20.645Z,10.15
2019-03-27T10:58:20.664Z,10.15
2019-03-27T10:59:20.634Z,10.1
2019-03-27T11:00:20.560Z,10.07
2019-03-27T11:01:20.614Z,10.04
2019-03-27T11:02:20.606Z,10.06
2019-03-27T11:03:20.622Z,10.02
2019-03-27T11:04:20.694Z,10.03
2019-03-27T11:05:20.707Z,10.07
2019-03-27T11:06:20.605Z,10.11
2019-03-27T11:07:20.770Z,10.14
2019-03-27T11:08:20.583Z,10.17
2019-03-27T11:09:20.561Z,10.12
2019-03-27T11:11:20.589Z,10.16
2019-03-27T11:12:20.589Z,10.18
2019-03-27T11:13:20.560Z,10.24
2019-03-27T11:14:20.671Z,10.27
2019-03-27T11:15:20.641Z,10.26
2019-03-27T11:16:20.588Z,10.38
2019-03-27T11:17:20.613Z,10.39
2019-03-27T11:18:20.955Z,10.37
2019-03-27T11:19:21.204Z,10.41
2019-03-27T11:20:31.927Z,10.43
2019-03-27T11:21:20.581Z,10.47
2019-03-27T11:22:20.586Z,10.47
2019-03-27T11:23:20.585Z,10.51
2019-03-27T11:24:20.621Z,10.54
2019-03-27T11:25:20.685Z,10.46
2019-03-27T11:26:20.587Z,10.53
2019-03-27T11:27:20.543Z,10.58
2019-03-27T11:28:20.580Z,10.59
2019-03-27T11:29:20.634Z,10.61
2019-03-27T11:30:20.582Z,10.63
2019-03-27T11:31:20.987Z,10.68
2019-03-27T11:32:20.593Z,10.63
2019-03-27T11:33:20.576Z,10.59
2019-03-27T11:35:20.564Z,10.68
2019-03-27T11:36:20.590Z,10.69
2019-03-27T11:37:20.523Z,10.67
2019-03-27T11:38:20.872Z,10.63
2019-03-27T11:39:20.698Z,10.59
2019-03-27T11:40:20.569Z,10.65
2019-03-27T11:41:20.610Z,10.66
2019-03-27T11:42:20.576Z,10.69
2019-03-27T11:43:20.616Z,10.66
2019-03-27T11:44:20.517Z,10.68
2019-03-27T11:45:20.607Z,10.66
2019-03-27T11:46:20.545Z,10.65
2019-03-27T11:47:20.529Z,10.73
2019-03-27T11:48:20.528Z,10.78
2019-03-27T11:49:20.558Z,10.89
2019-03-27T11:50:20.629Z,10.95
2019-03-27T11:51:20.570Z,11.03
2019-03-27T11:52:20.596Z,11.06
2019-03-27T11:53:20.557Z,11.09
2019-03-27T11:54:20.561Z,11.22
2019-03-27T11:55:20.521Z,11.37
2019-03-27T11:56:20.526Z,11.57
2019-03-27T11:57:20.598Z,11.7
2019-03-27T11:58:20.583Z,11.85
2019-03-27T11:59:21.083Z,11.91
2019-03-27T12:00:20.584Z,11.97
2019-03-27T12:01:20.541Z,12.03
2019-03-27T12:02:20.523Z,12.03
2019-03-27T12:03:20.535Z,12.06
2019-03-27T12:04:20.654Z,12.07
2019-03-27T12:05:20.648Z,12.13
2019-03-27T12:06:20.570Z,12.08
2019-03-27T12:07:20.532Z,11.96
2019-03-27T12:08:20.608Z,12.01
2019-03-27T12:09:20.494Z,12.12
2019-03-27T12:10:20.507Z,12.24
2019-03-27T12:11:20.534Z,12.34
2019-03-27T12:12:21.917Z,12.31
2019-03-27T12:13:20.484Z,12.33
2019-03-27T12:14:20.497Z,12.19
2019-03-27T12:15:20.624Z,12.25
2019-03-27T12:16:20.456Z,12.33
2019-03-27T12:17:20.486Z,12.43
2019-03-27T12:18:20.502Z,12.52
2019-03-27T12:19:20.747Z,12.59
2019-03-27T12:20:20.594Z,12.63
2019-03-27T12:21:20.527Z,12.61
2019-03-27T12:22:20.489Z,12.51
2019-03-27T12:23:20.531Z,12.37
2019-03-27T12:24:20.484Z,12.38
2019-03-27T12:25:21.935Z,12.25
2019-03-27T12:26:20.543Z,12.18
2019-03-27T12:27:20.516Z,11.97
2019-03-27T12:28:20.605Z,11.9
2019-03-27T12:29:20.516Z,11.94
2019-03-27T12:30:20.464Z,11.95
2019-03-27T12:31:20.538Z,11.85
2019-03-27T12:32:20.563Z,11.74
2019-03-27T12:33:20.465Z,11.72
2019-03-27T12:34:20.500Z,11.73
2019-03-27T12:35:20.471Z,11.76
2019-03-27T12:36:20.498Z,11.84
2019-03-27T12:37:20.700Z,11.84
2019-03-27T12:38:20.530Z,11.86
2019-03-27T12:39:20.617Z,11.86
2019-03-27T12:40:20.474Z,11.89
2019-03-27T12:41:20.529Z,11.94
2019-03-27T12:42:21.147Z,11.97
2019-03-27T12:43:20.453Z,11.83
2019-03-27T12:44:20.438Z,11.75
2019-03-27T12:45:20.487Z,11.67
2019-03-27T12:46:20.468Z,11.61
2019-03-27T12:47:20.496Z,11.64
2019-03-27T12:48:20.836Z,11.7
2019-03-27T12:49:20.472Z,11.67
2019-03-27T12:50:20.460Z,11.76
2019-03-27T12:51:20.478Z,11.82
2019-03-27T12:52:20.563Z,11.85
2019-03-27T12:53:20.488Z,11.82
2019-03-27T12:54:20.485Z,11.86
2019-03-27T12:55:20.460Z,11.76
2019-03-27T12:56:20.451Z,11.78
2019-03-27T12:57:20.454Z,11.83
2019-03-27T12:58:21.200Z,11.84
2019-03-27T12:59:20.430Z,11.95
2019-03-27T13:00:20.403Z,11.9
2019-03-27T13:01:20.431Z,11.78
2019-03-27T13:02:20.539Z,11.79
2019-03-27T13:03:20.470Z,11.81
2019-03-27T13:04:20.727Z,11.66
2019-03-27T13:05:20.580Z,11.76
2019-03-27T13:06:20.506Z,11.7
2019-03-27T13:07:20.455Z,11.64
2019-03-27T13:08:20.453Z,11.75
2019-03-27T13:09:20.496Z,11.85
2019-03-27T13:10:20.458Z,11.88
2019-03-27T13:11:20.524Z,11.91
2019-03-27T13:12:20.528Z,11.98
2019-03-27T13:13:20.454Z,12.02
2019-03-27T13:14:20.398Z,12.04
2019-03-27T13:15:20.441Z,11.96
2019-03-27T13:16:20.444Z,12.02
2019-03-27T13:17:20.378Z,12.07